createdAt,value
2023-09-07T00:00:25.911Z,96038.94
2023-09-07T00:05:28.873Z,96040.56
2023-09-07T00:10:35.370Z,96036.38
2023-09-07T00:15:41.020Z,96036.91
2023-09-07T00:20:50.396Z,96028.94
2023-09-07T00:25:53.906Z,96025.84
2023-09-07T00:30:57.960Z,96026.31
2023-09-07T00:36:02.994Z,96021.91
2023-09-07T00:41:07.690Z,96018.78
2023-09-07T00:46:13.846Z,96016.97
2023-09-07T00:51:20.576Z,96028.97
2023-09-07T00:56:25.882Z,96032.94
2023-09-07T01:01:32.876Z,96036.25
2023-09-07T01:06:39.645Z,96026.88
2023-09-07T01:11:47.220Z,96024.91
2023-09-07T01:16:52.095Z,96031.59
2023-09-07T01:21:58.884Z,96024.34
2023-09-07T01:27:04.746Z,96020.19
2023-09-07T01:32:11.621Z,96020.84
2023-09-07T01:37:24.659Z,96022.75
2023-09-07T01:42:32.993Z,96016.44
2023-09-07T01:47:38.947Z,96021.72
2023-09-07T01:52:42.591Z,96013.28
2023-09-07T01:57:46.976Z,96016.16
2023-09-07T02:02:52.496Z,96014.09
2023-09-07T02:07:56.221Z,96021.78
2023-09-07T02:13:00.839Z,96020.69
2023-09-07T02:18:07.608Z,96017.41
2023-09-07T02:23:21.675Z,96022.44
2023-09-07T02:28:27.235Z,96026.78
2023-09-07T02:33:35.710Z,96027.47
2023-09-07T02:38:38.912Z,96031.47
2023-09-07T02:43:49.307Z,96027.44
2023-09-07T02:48:52.361Z,96021.53
2023-09-07T02:54:01.104Z,96031.75
2023-09-07T02:59:07.270Z,96029.97
2023-09-07T03:04:10.342Z,96034.06
2023-09-07T03:09:20.029Z,96029.44
2023-09-07T03:14:25.037Z,96026.38
2023-09-07T03:19:35.603Z,96034.34
2023-09-07T03:24:39.087Z,96029.00
2023-09-07T03:29:45.866Z,96036.78
2023-09-07T03:34:51.290Z,96035.31
2023-09-07T03:39:58.550Z,96032.63
2023-09-07T03:45:03.929Z,96036.47
2023-09-07T03:50:07.641Z,96041.31
2023-09-07T03:55:15.763Z,96045.66
2023-09-07T04:00:23.441Z,96040.81
2023-09-07T04:05:29.470Z,96040.91
2023-09-07T04:10:33.282Z,96040.47
2023-09-07T04:15:48.161Z,96056.38
2023-09-07T04:20:56.382Z,96050.38
2023-09-07T04:26:05.017Z,96051.06
2023-09-07T04:31:12.800Z,96055.44
2023-09-07T04:36:16.789Z,96051.72
2023-09-07T04:41:30.328Z,96062.97
2023-09-07T04:46:34.867Z,96058.16
2023-09-07T04:51:40.740Z,96063.56
2023-09-07T04:56:45.008Z,96059.22
2023-09-07T05:01:48.481Z,96057.88
2023-09-07T05:06:54.904Z,96065.88
2023-09-07T05:11:58.881Z,96061.56
2023-09-07T05:17:09.390Z,96064.19
2023-09-07T05:22:16.837Z,96057.25
2023-09-07T05:27:32.109Z,96055.34
2023-09-07T05:32:35.502Z,96063.31
2023-09-07T05:37:39.273Z,96054.59
2023-09-07T05:42:47.907Z,96052.00
2023-09-07T05:53:20.980Z,96061.03
2023-09-07T05:58:24.387Z,96054.91
2023-09-07T06:03:30.543Z,96069.19
2023-09-07T06:08:41.412Z,96071.19
2023-09-07T06:13:49.648Z,96076.25
2023-09-07T06:18:54.682Z,96064.59
2023-09-07T06:24:03.506Z,96067.19
2023-09-07T06:29:09.428Z,96068.41
2023-09-07T06:34:14.374Z,96063.38
2023-09-07T06:39:26.113Z,96060.81
2023-09-07T06:44:32.665Z,96056.75
2023-09-07T06:49:48.715Z,96065.72
2023-09-07T06:54:56.198Z,96061.88
2023-09-07T07:00:02.316Z,96059.84
2023-09-07T07:05:09.549Z,96065.72
2023-09-07T07:10:16.843Z,96054.16
2023-09-07T07:15:24.641Z,96062.28
2023-09-07T07:20:31.767Z,96069.22
2023-09-07T07:25:38.108Z,96067.00
2023-09-07T07:30:48.216Z,96070.00
2023-09-07T07:35:53.070Z,96072.41
2023-09-07T07:40:59.037Z,96065.38
2023-09-07T07:46:04.842Z,96069.22
2023-09-07T07:51:13.647Z,96075.63
2023-09-07T07:56:18.672Z,96078.50
2023-09-07T08:06:46.260Z,96061.84
2023-09-07T08:11:53.925Z,96074.53
2023-09-07T08:17:02.761Z,96061.19
2023-09-07T08:22:10.343Z,96064.38
2023-09-07T08:27:21.675Z,96060.22
2023-09-07T08:32:32.455Z,96065.41
2023-09-07T08:37:40.175Z,96062.88
2023-09-07T08:42:44.241Z,96063.69
2023-09-07T08:47:51.997Z,96054.69
2023-09-07T08:52:59.827Z,96056.00
2023-09-07T08:58:04.991Z,96051.84
2023-09-07T09:03:10.421Z,96050.06
2023-09-07T09:08:14.069Z,96054.31
2023-09-07T09:13:22.117Z,96053.56
2023-09-07T09:18:30.237Z,96054.25
2023-09-07T09:23:38.642Z,96046.00
2023-09-07T09:28:42.695Z,96039.06
2023-09-07T09:33:47.009Z,96046.59
2023-09-07T09:38:55.556Z,96032.44
2023-09-07T09:43:58.760Z,96024.81
2023-09-07T09:49:04.313Z,96030.94
2023-09-07T09:54:10.572Z,96032.72
2023-09-07T09:59:13.647Z,96026.91
2023-09-07T10:04:18.288Z,96033.44
2023-09-07T10:09:29.202Z,96023.44
2023-09-07T10:14:41.397Z,96026.50
2023-09-07T10:19:52.689Z,96025.03
2023-09-07T10:24:58.293Z,96024.81
2023-09-07T10:30:03.346Z,96019.22
2023-09-07T10:35:13.636Z,96021.28
2023-09-07T10:40:19.425Z,96014.75
2023-09-07T10:45:24.192Z,96013.88
2023-09-07T10:50:29.729Z,96009.22
2023-09-07T10:55:42.592Z,96007.28
2023-09-07T11:01:02.051Z,96018.16
2023-09-07T11:06:07.016Z,96015.53
2023-09-07T11:11:10.294Z,96015.22
2023-09-07T11:16:18.576Z,96006.03
2023-09-07T11:21:24.735Z,95994.91
2023-09-07T11:26:28.604Z,95996.78
2023-09-07T11:31:38.787Z,96002.88
2023-09-07T11:36:46.525Z,96008.47
2023-09-07T11:41:50.102Z,96003.50
2023-09-07T11:46:58.082Z,95987.84
2023-09-07T11:52:04.625Z,95993.75
2023-09-07T11:57:13.793Z,95987.44
2023-09-07T12:02:19.100Z,95987.34
2023-09-07T12:07:23.803Z,95979.03
2023-09-07T12:12:28.545Z,95986.53
2023-09-07T12:17:33.182Z,95975.81
2023-09-07T12:22:41.647Z,95990.41
2023-09-07T12:27:54.371Z,95976.91
2023-09-07T12:32:58.542Z,95969.19
2023-09-07T12:38:01.743Z,95968.31
2023-09-07T12:43:09.188Z,95952.91
2023-09-07T12:48:17.453Z,95953.56
2023-09-07T12:53:25.793Z,95952.84
2023-09-07T12:58:32.337Z,95956.50
2023-09-07T13:03:40.926Z,95948.38
2023-09-07T13:08:44.568Z,95958.72
2023-09-07T13:13:51.064Z,95955.81
2023-09-07T13:18:56.235Z,95948.09
2023-09-07T13:23:59.317Z,95944.75
2023-09-07T13:29:06.950Z,95940.22
2023-09-07T13:34:14.235Z,95936.22
2023-09-07T13:39:21.539Z,95935.31
2023-09-07T13:44:49.060Z,95940.38
2023-09-07T13:49:53.785Z,95936.00
2023-09-07T13:54:58.796Z,95929.47
2023-09-07T14:00:01.977Z,95924.78
2023-09-07T14:05:13.726Z,95931.50
2023-09-07T14:10:29.479Z,95920.22
2023-09-07T14:15:34.615Z,95924.84
2023-09-07T14:20:42.682Z,95915.31
2023-09-07T14:25:46.478Z,95922.75
2023-09-07T14:30:51.245Z,95932.22
2023-09-07T14:35:55.649Z,95924.56
2023-09-07T14:41:03.181Z,95925.16
2023-09-07T14:46:11.325Z,95923.53
2023-09-07T14:51:26.289Z,95922.88
2023-09-07T14:56:50.082Z,95920.94
2023-09-07T15:02:04.768Z,95934.78
2023-09-07T15:07:08.860Z,95924.78
2023-09-07T15:12:18.968Z,95920.69
2023-09-07T15:17:21.800Z,95913.69
2023-09-07T15:22:30.717Z,95914.50
2023-09-07T15:27:36.428Z,95919.38
2023-09-07T15:32:41.432Z,95918.53
2023-09-07T15:37:47.164Z,95920.81
2023-09-07T15:42:50.660Z,95918.94
2023-09-07T15:47:55.248Z,95923.06
2023-09-07T15:53:01.385Z,95913.41
2023-09-07T15:58:06.243Z,95925.91
2023-09-07T16:03:11.528Z,95920.31
2023-09-07T16:08:22.036Z,95918.72
2023-09-07T16:13:29.974Z,95920.31
2023-09-07T16:18:34.937Z,95916.56
2023-09-07T16:23:39.632Z,95924.47
2023-09-07T16:28:47.812Z,95918.25
2023-09-07T16:34:00.369Z,95916.19
2023-09-07T16:39:06.285Z,95922.66
2023-09-07T16:44:09.737Z,95923.63
2023-09-07T16:49:15.982Z,95929.63
2023-09-07T16:54:19.315Z,95921.44
2023-09-07T16:59:54.638Z,95924.25
2023-09-07T17:04:48.019Z,95921.56
2023-09-07T17:09:55.310Z,95922.31
2023-09-07T17:15:00.239Z,95922.31
2023-09-07T17:20:06.584Z,95924.97
2023-09-07T17:25:18.256Z,95930.38
2023-09-07T17:30:21.925Z,95933.53
2023-09-07T17:35:37.558Z,95927.13
2023-09-07T17:40:41.395Z,95923.22
2023-09-07T17:45:51.743Z,95921.28
2023-09-07T17:51:06.687Z,95934.50
2023-09-07T17:56:10.414Z,95931.47
2023-09-07T18:01:18.554Z,95937.75
2023-09-07T18:06:34.619Z,95939.88
2023-09-07T18:11:50.489Z,95948.31
2023-09-07T18:16:56.344Z,95945.28
2023-09-07T18:27:24.748Z,95956.78
2023-09-07T18:32:47.972Z,95952.56
2023-09-07T18:37:52.335Z,95954.91
2023-09-07T18:42:54.983Z,95955.94
2023-09-07T18:48:02.229Z,95947.00
2023-09-07T18:53:11.796Z,95948.41
2023-09-07T18:58:19.852Z,95955.81
2023-09-07T19:03:24.365Z,95951.22
2023-09-07T19:08:28.260Z,95950.44
2023-09-07T19:13:31.458Z,95950.13
2023-09-07T19:18:35.312Z,95959.63
2023-09-07T19:23:40.112Z,95956.56
2023-09-07T19:28:44.098Z,95958.50
2023-09-07T19:33:52.746Z,95948.25
2023-09-07T19:38:55.936Z,95949.69
2023-09-07T19:44:04.429Z,95950.34
2023-09-07T19:49:10.682Z,95954.66
2023-09-07T19:54:19.334Z,95952.53
2023-09-07T19:59:25.041Z,95961.53
2023-09-07T20:04:28.662Z,95964.56
2023-09-07T20:09:34.550Z,95965.19
2023-09-07T20:14:37.757Z,95965.66
2023-09-07T20:19:42.101Z,95961.03
2023-09-07T20:24:56.158Z,95962.47
2023-09-07T20:30:00.772Z,95962.09
2023-09-07T20:35:06.921Z,95956.00
2023-09-07T20:40:16.321Z,95958.25
2023-09-07T20:45:19.026Z,95961.13
2023-09-07T20:50:36.119Z,95954.41
2023-09-07T20:55:41.224Z,95964.91
2023-09-07T21:00:55.190Z,95964.44
2023-09-07T21:06:14.913Z,95964.53
2023-09-07T21:11:20.832Z,95963.16
2023-09-07T21:16:25.128Z,95959.78
2023-09-07T21:21:32.890Z,95955.41
2023-09-07T21:26:36.679Z,95956.25
2023-09-07T21:31:43.033Z,95968.47
2023-09-07T21:36:59.002Z,95964.84
2023-09-07T21:42:02.690Z,95963.38
2023-09-07T21:47:08.372Z,95967.75
2023-09-07T21:52:12.076Z,95966.91
2023-09-07T21:57:17.655Z,95966.44
2023-09-07T22:02:21.870Z,95966.19
2023-09-07T22:07:35.921Z,95952.97
2023-09-07T22:12:38.661Z,95970.47
2023-09-07T22:17:46.042Z,95957.56
2023-09-07T22:22:53.691Z,95954.94
2023-09-07T22:27:59.633Z,95952.56
2023-09-07T22:33:07.014Z,95959.97
2023-09-07T22:43:31.921Z,95954.59
2023-09-07T22:48:39.020Z,95950.59
2023-09-07T22:53:51.611Z,95960.81
2023-09-07T22:58:55.879Z,95953.81
2023-09-07T23:04:07.145Z,95951.41
2023-09-07T23:09:12.584Z,95961.66
2023-09-07T23:14:17.345Z,95969.69
2023-09-07T23:19:26.174Z,95962.75
2023-09-07T23:24:31.255Z,95969.59
2023-09-07T23:29:35.567Z,95972.97
2023-09-07T23:34:39.246Z,95963.31
2023-09-07T23:39:45.412Z,95967.75
2023-09-07T23:44:52.032Z,95959.72
2023-09-07T23:49:56.676Z,95966.53
2023-09-07T23:55:01.680Z,95965.94
